Flugplatz Wesel-Römerwardt (EDLX)

Hier findest Du alle Informationen zum Flugplatz Wesel-Römerwardt (EDLX).

Informationen für Piloten zum Flugplatz Wesel-Römerwardt

Hier findest Du alle relevanten Informationen, die Du als Pilot benötigst, um Wesel-Römerwardt anzufliegen.

Flugplatz: Wesel-Römerwardt ICAO-Code: EDLX
Frequenz Turm: 122,025 Mhz GAFOR Gebiet: 31
Frequenz Ground: 122,025 Mhz Mogas: nein
Platzrunde: N 900 ft Landegebühr: 5 €
Platzhöhe: 72 ft Sunrise: 03:42 Uhr UTC
Pisten: 09/27 - 400 m x 30 m, GRAS Sunset: 19:37 Uhr UTC

Mitglieder, die in Wesel-Römerwardt fliegen

Flugwetter am Flugplatz Wesel-Römerwardt

Die METAR Information stammen aus EDDL (43.80 km entfernt).

METAR Code:
2024/07/23 07:50
EDDL 230750Z AUTO 21009KT 9000 -RA FEW020 BKN041 BKN047 19/17 Q1016 RESHRA TEMPO SHRA BKN014CB

Flugschulen am Flugplatz Wesel-Römerwardt

Am Flugplatz Wesel-Römerwardt gibt es leider keine Flugschule.

Benachbarte Flugplätze und Flugschulen

Es gibt 18 weitere Flugplätze in einem Umkreis von 50 km um den Flugplatz Wesel-Römerwardt.

Jetzt anmelden

Passwort vergessen

Umfrage Archiv

Wie häufig haltet Ihr die Halbkreisflugregel ein?

Eher häufig!
36.6 %
Immer!
30.5 %
Hin und wieder!
16.8 %
Nie!
9.3 %
Eher selten!
6.8 %
Stimmen: 279 | Diskussion
Anzeige: Roland Aircraft
Statistik Alle Mitglieder

Aktuell sind 37 Besucher online.

Anzeige: EasyVFR